CCA1739 ZSJN-ZYTX
Flight info
| Callsign | CCA1739 |
|---|---|
| Flight time | 1h 18m |
| Altitude | 39100 |
| Route | WFG DCT GUTVO DCT HCH W173 NIXEP W8 DOBGA W202 UDETI A588 TOSID TOS63A |
| Aircraft | A20N/M-SDE2E3FGHIRWXY/LB1 |
Departure
| Time | 2026-04-14 23:32 |
|---|---|
| Airport | Jinan Yaoqiang International Airport (ZSJN) |
Arrival
| Time | 2026-04-15 00:51 |
|---|---|
| Airport | Shenyang Taoxian International Airport (ZYTX) |
| Time | Latitude | Longitude | Altitude | Speed | Heading |
|---|---|---|---|---|---|
| 2026-04-14 23:19 | 36.86088 | 117.21165 | 83 ft | 0 kts | 269° |
| 2026-04-14 23:23 | 36.86088 | 117.21169 | 83 ft | 2 kts | 270° |
| 2026-04-14 23:24 | 36.86088 | 117.21188 | 83 ft | 2 kts | 269° |
| 2026-04-14 23:24 | 36.86088 | 117.21207 | 83 ft | 2 kts | 269° |
| 2026-04-14 23:24 | 36.86088 | 117.21226 | 83 ft | 2 kts | 269° |
| 2026-04-14 23:24 | 36.86089 | 117.21244 | 84 ft | 2 kts | 276° |
| 2026-04-14 23:25 | 36.86082 | 117.21262 | 83 ft | 2 kts | 312° |
| 2026-04-14 23:25 | 36.86071 | 117.21272 | 83 ft | 2 kts | 342° |
| 2026-04-14 23:25 | 36.86062 | 117.21275 | 84 ft | 1 kts | 359° |
| 2026-04-14 23:25 | 36.86056 | 117.21274 | 83 ft | 0 kts | 0° |
| 2026-04-14 23:27 | 36.86057 | 117.21274 | 83 ft | 0 kts | 0° |
| 2026-04-14 23:27 | 36.86063 | 117.21274 | 83 ft | 3 kts | 359° |
| 2026-04-14 23:27 | 36.86095 | 117.21274 | 83 ft | 5 kts | 360° |
| 2026-04-14 23:27 | 36.86145 | 117.21274 | 83 ft | 8 kts | 0° |
| 2026-04-14 23:28 | 36.86217 | 117.21275 | 83 ft | 11 kts | 360° |
| 2026-04-14 23:28 | 36.86325 | 117.21276 | 83 ft | 19 kts | 0° |
| 2026-04-14 23:28 | 36.86465 | 117.21278 | 83 ft | 20 kts | 1° |
| 2026-04-14 23:28 | 36.86603 | 117.21275 | 83 ft | 19 kts | 358° |
| 2026-04-14 23:29 | 36.86740 | 117.21274 | 83 ft | 19 kts | 1° |
| 2026-04-14 23:29 | 36.86875 | 117.21274 | 83 ft | 19 kts | 0° |
| 2026-04-14 23:29 | 36.87021 | 117.21275 | 83 ft | 22 kts | 1° |
| 2026-04-14 23:29 | 36.87180 | 117.21281 | 83 ft | 24 kts | 1° |
| 2026-04-14 23:30 | 36.87328 | 117.21291 | 83 ft | 19 kts | 47° |
| 2026-04-14 23:30 | 36.87342 | 117.21448 | 83 ft | 18 kts | 90° |
| 2026-04-14 23:30 | 36.87324 | 117.21589 | 83 ft | 13 kts | 138° |
| 2026-04-14 23:30 | 36.87255 | 117.21600 | 83 ft | 0 kts | 183° |
| 2026-04-14 23:31 | 36.87254 | 117.21600 | 83 ft | 0 kts | 183° |
| 2026-04-14 23:31 | 36.87248 | 117.21600 | 83 ft | 1 kts | 183° |
| 2026-04-14 23:31 | 36.87124 | 117.21599 | 83 ft | 51 kts | 179° |
| 2026-04-14 23:32 | 36.86524 | 117.21600 | 84 ft | 118 kts | 180° |
| 2026-04-14 23:32 | 36.85516 | 117.21603 | 134 ft | 165 kts | 179° |
| 2026-04-14 23:32 | 36.84356 | 117.21606 | 621 ft | 170 kts | 179° |
| 2026-04-14 23:32 | 36.83149 | 117.21604 | 1196 ft | 176 kts | 179° |
| 2026-04-14 23:33 | 36.81910 | 117.21497 | 1740 ft | 186 kts | 192° |
| 2026-04-14 23:33 | 36.80683 | 117.20802 | 2199 ft | 203 kts | 214° |
| 2026-04-14 23:33 | 36.79396 | 117.20142 | 2821 ft | 208 kts | 182° |
| 2026-04-14 23:33 | 36.77914 | 117.20202 | 3302 ft | 225 kts | 176° |
| 2026-04-14 23:34 | 36.76265 | 117.20267 | 3716 ft | 248 kts | 176° |
| 2026-04-14 23:34 | 36.74472 | 117.20373 | 4267 ft | 266 kts | 176° |
| 2026-04-14 23:34 | 36.72591 | 117.20471 | 5028 ft | 275 kts | 176° |
| 2026-04-14 23:34 | 36.70686 | 117.20549 | 5920 ft | 278 kts | 176° |
| 2026-04-14 23:35 | 36.68739 | 117.20615 | 6794 ft | 282 kts | 176° |
| 2026-04-14 23:35 | 36.66772 | 117.20678 | 7617 ft | 287 kts | 176° |
| 2026-04-14 23:35 | 36.64789 | 117.20738 | 8423 ft | 291 kts | 177° |
| 2026-04-14 23:35 | 36.62759 | 117.20794 | 9201 ft | 297 kts | 178° |
| 2026-04-14 23:36 | 36.60681 | 117.20850 | 9971 ft | 301 kts | 178° |
| 2026-04-14 23:36 | 36.58576 | 117.20905 | 10649 ft | 309 kts | 179° |
| 2026-04-14 23:36 | 36.56348 | 117.20960 | 11058 ft | 327 kts | 179° |
| 2026-04-14 23:36 | 36.54037 | 117.21017 | 11412 ft | 345 kts | 179° |
| 2026-04-14 23:37 | 36.51556 | 117.21077 | 11736 ft | 363 kts | 179° |
| 2026-04-14 23:37 | 36.48993 | 117.21140 | 12032 ft | 380 kts | 179° |
| 2026-04-14 23:37 | 36.46263 | 117.21209 | 12320 ft | 397 kts | 179° |
| 2026-04-14 23:37 | 36.43465 | 117.21375 | 12726 ft | 408 kts | 175° |
| 2026-04-14 23:38 | 36.40657 | 117.21882 | 13336 ft | 413 kts | 169° |
| 2026-04-14 23:38 | 36.37870 | 117.22742 | 13971 ft | 417 kts | 165° |
| 2026-04-14 23:38 | 36.35056 | 117.23776 | 14566 ft | 422 kts | 164° |
| 2026-04-14 23:38 | 36.32232 | 117.24841 | 15132 ft | 427 kts | 164° |
| 2026-04-14 23:39 | 36.29390 | 117.25914 | 15689 ft | 431 kts | 164° |
| 2026-04-14 23:39 | 36.26498 | 117.26997 | 16270 ft | 435 kts | 165° |
| 2026-04-14 23:39 | 36.23606 | 117.28075 | 16802 ft | 439 kts | 165° |
| 2026-04-14 23:39 | 36.20658 | 117.29170 | 17309 ft | 444 kts | 165° |
| 2026-04-14 23:40 | 36.17692 | 117.30268 | 17826 ft | 448 kts | 166° |
| 2026-04-14 23:40 | 36.14716 | 117.31367 | 18323 ft | 452 kts | 166° |
| 2026-04-14 23:40 | 36.11680 | 117.32490 | 18827 ft | 455 kts | 166° |
| 2026-04-14 23:40 | 36.08723 | 117.33910 | 19275 ft | 464 kts | 152° |
| 2026-04-14 23:41 | 36.06223 | 117.36470 | 19745 ft | 471 kts | 131° |
| 2026-04-14 23:41 | 36.04549 | 117.39882 | 20253 ft | 475 kts | 111° |
| 2026-04-14 23:41 | 36.03837 | 117.43882 | 20715 ft | 476 kts | 91° |
| 2026-04-14 23:41 | 36.04210 | 117.47919 | 21115 ft | 475 kts | 71° |
| 2026-04-14 23:42 | 36.05476 | 117.51608 | 21529 ft | 474 kts | 60° |
| 2026-04-14 23:42 | 36.06937 | 117.55272 | 21899 ft | 479 kts | 60° |
| 2026-04-14 23:42 | 36.08403 | 117.58993 | 22276 ft | 484 kts | 61° |
| 2026-04-14 23:42 | 36.09858 | 117.62747 | 22676 ft | 487 kts | 61° |
| 2026-04-14 23:43 | 36.11319 | 117.66569 | 23025 ft | 492 kts | 62° |
| 2026-04-14 23:43 | 36.12768 | 117.70391 | 23324 ft | 497 kts | 62° |
| 2026-04-14 23:43 | 36.14237 | 117.74294 | 23671 ft | 501 kts | 62° |
| 2026-04-14 23:43 | 36.15692 | 117.78170 | 23981 ft | 505 kts | 62° |
| 2026-04-14 23:44 | 36.17176 | 117.82140 | 24288 ft | 509 kts | 62° |
| 2026-04-14 23:44 | 36.18663 | 117.86124 | 24604 ft | 511 kts | 62° |
| 2026-04-14 23:44 | 36.20145 | 117.90092 | 24894 ft | 514 kts | 62° |
| 2026-04-14 23:44 | 36.21643 | 117.94113 | 25256 ft | 515 kts | 62° |
| 2026-04-14 23:45 | 36.23140 | 117.98135 | 25622 ft | 516 kts | 63° |
| 2026-04-14 23:45 | 36.24631 | 118.02151 | 26013 ft | 516 kts | 63° |
| 2026-04-14 23:45 | 36.26138 | 118.06210 | 26402 ft | 516 kts | 62° |
| 2026-04-14 23:45 | 36.27610 | 118.10191 | 26765 ft | 517 kts | 62° |
| 2026-04-14 23:46 | 36.29113 | 118.14248 | 27106 ft | 517 kts | 63° |
| 2026-04-14 23:46 | 36.30618 | 118.18315 | 27453 ft | 518 kts | 63° |
| 2026-04-14 23:46 | 36.32110 | 118.22359 | 27806 ft | 518 kts | 62° |
| 2026-04-14 23:46 | 36.33601 | 118.26405 | 28181 ft | 518 kts | 63° |
| 2026-04-14 23:47 | 36.35094 | 118.30463 | 28505 ft | 519 kts | 63° |
| 2026-04-14 23:47 | 36.36599 | 118.34553 | 28787 ft | 521 kts | 63° |
| 2026-04-14 23:47 | 36.38088 | 118.38604 | 29051 ft | 523 kts | 62° |
| 2026-04-14 23:47 | 36.39592 | 118.42707 | 29295 ft | 526 kts | 63° |
| 2026-04-14 23:48 | 36.41101 | 118.46822 | 29535 ft | 528 kts | 62° |
| 2026-04-14 23:48 | 36.42629 | 118.51000 | 29758 ft | 530 kts | 63° |
| 2026-04-14 23:48 | 36.44147 | 118.55157 | 29980 ft | 532 kts | 63° |
| 2026-04-14 23:48 | 36.45670 | 118.59330 | 30104 ft | 534 kts | 63° |
| 2026-04-14 23:49 | 36.48741 | 118.67776 | 30106 ft | 537 kts | 63° |
| 2026-04-14 23:49 | 36.51792 | 118.76183 | 30115 ft | 538 kts | 63° |
| 2026-04-14 23:50 | 36.54867 | 118.84677 | 30114 ft | 539 kts | 64° |
| 2026-04-14 23:50 | 36.57935 | 118.93180 | 30115 ft | 540 kts | 63° |
| 2026-04-14 23:51 | 36.60984 | 119.01668 | 30113 ft | 541 kts | 63° |
| 2026-04-14 23:51 | 36.64034 | 119.10228 | 30115 ft | 542 kts | 65° |
| 2026-04-14 23:52 | 36.66574 | 119.19030 | 30115 ft | 543 kts | 70° |
| 2026-04-14 23:52 | 36.68850 | 119.27947 | 30114 ft | 544 kts | 71° |
| 2026-04-14 23:53 | 36.71126 | 119.36905 | 30114 ft | 544 kts | 70° |
| 2026-04-14 23:53 | 36.73408 | 119.45835 | 30113 ft | 544 kts | 70° |
| 2026-04-14 23:54 | 36.75695 | 119.54797 | 30113 ft | 543 kts | 70° |
| 2026-04-14 23:54 | 36.77971 | 119.63764 | 30112 ft | 543 kts | 70° |
| 2026-04-14 23:55 | 36.80326 | 119.72678 | 30106 ft | 542 kts | 64° |
| 2026-04-14 23:55 | 36.82068 | 119.76835 | 30114 ft | 537 kts | 53° |
| 2026-04-14 23:55 | 36.84327 | 119.80484 | 30118 ft | 529 kts | 41° |
| 2026-04-14 23:56 | 36.89909 | 119.86172 | 30129 ft | 515 kts | 28° |
| 2026-04-14 23:56 | 36.95761 | 119.91244 | 30127 ft | 515 kts | 27° |
| 2026-04-14 23:57 | 37.01626 | 119.96407 | 30132 ft | 514 kts | 28° |
| 2026-04-14 23:57 | 37.07427 | 120.01597 | 30135 ft | 514 kts | 28° |
| 2026-04-14 23:58 | 37.13237 | 120.06832 | 30131 ft | 513 kts | 28° |
| 2026-04-14 23:58 | 37.19012 | 120.12051 | 30132 ft | 513 kts | 29° |
| 2026-04-14 23:59 | 37.24758 | 120.17257 | 30129 ft | 513 kts | 29° |
| 2026-04-14 23:59 | 37.30543 | 120.22507 | 30132 ft | 512 kts | 29° |
| 2026-04-15 00:00 | 37.36280 | 120.27723 | 30132 ft | 512 kts | 28° |
| 2026-04-15 00:00 | 37.42032 | 120.32964 | 30133 ft | 510 kts | 28° |
| 2026-04-15 00:01 | 37.47774 | 120.38206 | 30134 ft | 510 kts | 28° |
| 2026-04-15 00:01 | 37.53520 | 120.43461 | 30141 ft | 511 kts | 29° |
| 2026-04-15 00:02 | 37.59272 | 120.48737 | 30139 ft | 511 kts | 29° |
| 2026-04-15 00:02 | 37.65026 | 120.53948 | 30139 ft | 508 kts | 26° |
| 2026-04-15 00:03 | 37.71004 | 120.58563 | 30138 ft | 505 kts | 22° |
| 2026-04-15 00:03 | 37.77051 | 120.62995 | 30136 ft | 505 kts | 22° |
| 2026-04-15 00:04 | 37.83124 | 120.67465 | 30139 ft | 505 kts | 23° |
| 2026-04-15 00:04 | 37.89180 | 120.71953 | 30133 ft | 506 kts | 23° |
| 2026-04-15 00:05 | 37.95227 | 120.76451 | 30142 ft | 506 kts | 23° |
| 2026-04-15 00:05 | 38.01335 | 120.81000 | 30150 ft | 506 kts | 23° |
| 2026-04-15 00:06 | 38.07382 | 120.85525 | 30148 ft | 506 kts | 23° |
| 2026-04-15 00:06 | 38.13454 | 120.90090 | 30150 ft | 507 kts | 24° |
| 2026-04-15 00:07 | 38.19457 | 120.94624 | 30132 ft | 506 kts | 25° |
| 2026-04-15 00:07 | 38.24852 | 121.00539 | 30141 ft | 522 kts | 45° |
| 2026-04-15 00:08 | 38.26958 | 121.04316 | 30133 ft | 528 kts | 56° |
| 2026-04-15 00:08 | 38.28614 | 121.08502 | 30120 ft | 532 kts | 63° |
| 2026-04-15 00:08 | 38.31512 | 121.17139 | 30121 ft | 533 kts | 64° |
| 2026-04-15 00:09 | 38.34420 | 121.25804 | 30121 ft | 533 kts | 63° |
| 2026-04-15 00:09 | 38.37384 | 121.34424 | 30118 ft | 531 kts | 63° |
| 2026-04-15 00:10 | 38.40344 | 121.43001 | 30118 ft | 531 kts | 63° |
| 2026-04-15 00:10 | 38.43525 | 121.51406 | 30123 ft | 530 kts | 59° |
| 2026-04-15 00:11 | 38.46886 | 121.59740 | 30116 ft | 530 kts | 59° |
| 2026-04-15 00:11 | 38.50238 | 121.68083 | 30110 ft | 531 kts | 59° |
| 2026-04-15 00:12 | 38.53586 | 121.76482 | 30122 ft | 530 kts | 59° |
| 2026-04-15 00:12 | 38.56912 | 121.84860 | 30129 ft | 529 kts | 59° |
| 2026-04-15 00:13 | 38.60222 | 121.93223 | 30119 ft | 528 kts | 59° |
| 2026-04-15 00:13 | 38.63505 | 122.01547 | 30118 ft | 529 kts | 59° |
| 2026-04-15 00:14 | 38.66862 | 122.09927 | 30105 ft | 524 kts | 55° |
| 2026-04-15 00:14 | 38.71302 | 122.17078 | 30130 ft | 511 kts | 37° |
| 2026-04-15 00:15 | 38.76969 | 122.22319 | 30139 ft | 498 kts | 25° |
| 2026-04-15 00:15 | 38.82885 | 122.26839 | 30128 ft | 495 kts | 24° |
| 2026-04-15 00:16 | 38.88761 | 122.31417 | 30133 ft | 496 kts | 25° |
| 2026-04-15 00:16 | 38.94642 | 122.36066 | 30127 ft | 497 kts | 25° |
| 2026-04-15 00:17 | 39.00510 | 122.40723 | 30135 ft | 496 kts | 25° |
| 2026-04-15 00:17 | 39.06373 | 122.45392 | 30126 ft | 496 kts | 25° |
| 2026-04-15 00:18 | 39.15120 | 122.52375 | 30128 ft | 493 kts | 26° |
| 2026-04-15 00:19 | 39.20948 | 122.57044 | 30124 ft | 493 kts | 25° |
| 2026-04-15 00:19 | 39.26730 | 122.61639 | 30120 ft | 491 kts | 24° |
| 2026-04-15 00:20 | 39.32677 | 122.65924 | 30124 ft | 490 kts | 23° |
| 2026-04-15 00:20 | 39.38664 | 122.70165 | 30126 ft | 490 kts | 23° |
| 2026-04-15 00:21 | 39.44630 | 122.74412 | 30133 ft | 489 kts | 24° |
| 2026-04-15 00:21 | 39.50557 | 122.78650 | 30123 ft | 488 kts | 24° |
| 2026-04-15 00:22 | 39.56460 | 122.82883 | 30130 ft | 487 kts | 24° |
| 2026-04-15 00:22 | 39.62370 | 122.87129 | 30126 ft | 488 kts | 24° |
| 2026-04-15 00:23 | 39.68303 | 122.91400 | 30127 ft | 488 kts | 24° |
| 2026-04-15 00:23 | 39.74240 | 122.95685 | 30133 ft | 487 kts | 24° |
| 2026-04-15 00:24 | 39.80122 | 122.99940 | 30134 ft | 486 kts | 24° |
| 2026-04-15 00:24 | 39.86030 | 123.04219 | 30132 ft | 485 kts | 24° |
| 2026-04-15 00:25 | 39.91877 | 123.08465 | 30130 ft | 482 kts | 24° |
| 2026-04-15 00:25 | 39.97727 | 123.12723 | 30128 ft | 482 kts | 24° |
| 2026-04-15 00:26 | 40.03577 | 123.16990 | 30136 ft | 482 kts | 24° |
| 2026-04-15 00:26 | 40.09405 | 123.21197 | 30128 ft | 482 kts | 24° |
| 2026-04-15 00:27 | 40.15272 | 123.25410 | 30139 ft | 483 kts | 24° |
| 2026-04-15 00:27 | 40.21139 | 123.29639 | 30120 ft | 483 kts | 24° |
| 2026-04-15 00:28 | 40.27014 | 123.33887 | 30124 ft | 483 kts | 24° |
| 2026-04-15 00:28 | 40.32912 | 123.38164 | 30131 ft | 482 kts | 24° |
| 2026-04-15 00:29 | 40.38735 | 123.42396 | 30122 ft | 482 kts | 24° |
| 2026-04-15 00:29 | 40.44619 | 123.46680 | 30131 ft | 482 kts | 24° |
| 2026-04-15 00:30 | 40.50446 | 123.50935 | 30124 ft | 481 kts | 23° |
| 2026-04-15 00:30 | 40.56259 | 123.55251 | 30123 ft | 483 kts | 26° |
| 2026-04-15 00:31 | 40.61824 | 123.60284 | 30121 ft | 486 kts | 32° |
| 2026-04-15 00:31 | 40.67114 | 123.65735 | 30115 ft | 487 kts | 33° |
| 2026-04-15 00:31 | 40.69761 | 123.68493 | 29905 ft | 489 kts | 33° |
| 2026-04-15 00:32 | 40.72428 | 123.71272 | 29461 ft | 484 kts | 33° |
| 2026-04-15 00:32 | 40.75060 | 123.74009 | 28666 ft | 483 kts | 33° |
| 2026-04-15 00:32 | 40.77682 | 123.76729 | 27630 ft | 486 kts | 33° |
| 2026-04-15 00:32 | 40.80345 | 123.79495 | 26546 ft | 488 kts | 33° |
| 2026-04-15 00:33 | 40.82978 | 123.82235 | 25509 ft | 488 kts | 33° |
| 2026-04-15 00:33 | 40.85632 | 123.84999 | 24439 ft | 488 kts | 34° |
| 2026-04-15 00:33 | 40.88291 | 123.87744 | 23556 ft | 481 kts | 32° |
| 2026-04-15 00:33 | 40.90980 | 123.90255 | 22850 ft | 469 kts | 29° |
| 2026-04-15 00:34 | 40.93689 | 123.92483 | 22236 ft | 458 kts | 26° |
| 2026-04-15 00:34 | 40.96461 | 123.94533 | 21479 ft | 451 kts | 24° |
| 2026-04-15 00:34 | 40.99171 | 123.96480 | 20815 ft | 444 kts | 24° |
| 2026-04-15 00:34 | 41.01869 | 123.98406 | 20189 ft | 437 kts | 24° |
| 2026-04-15 00:35 | 41.04528 | 124.00309 | 19563 ft | 430 kts | 24° |
| 2026-04-15 00:35 | 41.07117 | 124.02165 | 18935 ft | 425 kts | 24° |
| 2026-04-15 00:35 | 41.09675 | 124.04007 | 18298 ft | 419 kts | 24° |
| 2026-04-15 00:35 | 41.12248 | 124.05861 | 17658 ft | 414 kts | 24° |
| 2026-04-15 00:36 | 41.14735 | 124.07656 | 17045 ft | 409 kts | 24° |
| 2026-04-15 00:36 | 41.17211 | 124.09447 | 16427 ft | 405 kts | 24° |
| 2026-04-15 00:36 | 41.19675 | 124.11231 | 15796 ft | 401 kts | 25° |
| 2026-04-15 00:36 | 41.22125 | 124.12911 | 15140 ft | 394 kts | 18° |
| 2026-04-15 00:37 | 41.24752 | 124.13603 | 14500 ft | 382 kts | 358° |
| 2026-04-15 00:37 | 41.27303 | 124.13071 | 13892 ft | 373 kts | 340° |
| 2026-04-15 00:37 | 41.29588 | 124.11485 | 13267 ft | 369 kts | 323° |
| 2026-04-15 00:37 | 41.31357 | 124.09050 | 12633 ft | 368 kts | 306° |
| 2026-04-15 00:38 | 41.32613 | 124.06111 | 12033 ft | 366 kts | 300° |
| 2026-04-15 00:38 | 41.33794 | 124.03166 | 11609 ft | 357 kts | 300° |
| 2026-04-15 00:38 | 41.34940 | 124.00292 | 11326 ft | 345 kts | 300° |
| 2026-04-15 00:38 | 41.36039 | 123.97533 | 11067 ft | 333 kts | 300° |
| 2026-04-15 00:39 | 41.37105 | 123.94851 | 10769 ft | 323 kts | 299° |
| 2026-04-15 00:39 | 41.37955 | 123.92161 | 10541 ft | 314 kts | 291° |
| 2026-04-15 00:39 | 41.38493 | 123.89401 | 10380 ft | 302 kts | 284° |
| 2026-04-15 00:39 | 41.38841 | 123.86736 | 10231 ft | 278 kts | 283° |
| 2026-04-15 00:40 | 41.39137 | 123.84297 | 10102 ft | 266 kts | 283° |
| 2026-04-15 00:40 | 41.39435 | 123.81865 | 9990 ft | 265 kts | 283° |
| 2026-04-15 00:40 | 41.39734 | 123.79433 | 9683 ft | 266 kts | 283° |
| 2026-04-15 00:40 | 41.40033 | 123.77011 | 9322 ft | 265 kts | 283° |
| 2026-04-15 00:41 | 41.40329 | 123.74617 | 8988 ft | 264 kts | 283° |
| 2026-04-15 00:41 | 41.40625 | 123.72231 | 8654 ft | 262 kts | 283° |
| 2026-04-15 00:41 | 41.40921 | 123.69838 | 8332 ft | 261 kts | 282° |
| 2026-04-15 00:41 | 41.41216 | 123.67448 | 7971 ft | 261 kts | 282° |
| 2026-04-15 00:42 | 41.41505 | 123.65094 | 7636 ft | 259 kts | 282° |
| 2026-04-15 00:42 | 41.41797 | 123.62723 | 7307 ft | 258 kts | 282° |
| 2026-04-15 00:42 | 41.42085 | 123.60387 | 6987 ft | 257 kts | 282° |
| 2026-04-15 00:42 | 41.42370 | 123.58054 | 6653 ft | 255 kts | 282° |
| 2026-04-15 00:43 | 41.42653 | 123.55733 | 6331 ft | 254 kts | 282° |
| 2026-04-15 00:43 | 41.42936 | 123.53419 | 6017 ft | 254 kts | 281° |
| 2026-04-15 00:43 | 41.43144 | 123.51067 | 5695 ft | 254 kts | 277° |
| 2026-04-15 00:43 | 41.43279 | 123.48733 | 5344 ft | 254 kts | 276° |
| 2026-04-15 00:44 | 41.43409 | 123.46378 | 4995 ft | 254 kts | 276° |
| 2026-04-15 00:44 | 41.43536 | 123.44048 | 4683 ft | 253 kts | 276° |
| 2026-04-15 00:44 | 41.43661 | 123.41763 | 4548 ft | 241 kts | 276° |
| 2026-04-15 00:44 | 41.43776 | 123.39619 | 4536 ft | 227 kts | 276° |
| 2026-04-15 00:45 | 41.43895 | 123.37543 | 4519 ft | 225 kts | 279° |
| 2026-04-15 00:45 | 41.44429 | 123.35603 | 4378 ft | 223 kts | 313° |
| 2026-04-15 00:45 | 41.45599 | 123.34325 | 4161 ft | 218 kts | 325° |
| 2026-04-15 00:45 | 41.46816 | 123.33176 | 3946 ft | 214 kts | 325° |
| 2026-04-15 00:46 | 41.48015 | 123.32010 | 3719 ft | 210 kts | 324° |
| 2026-04-15 00:46 | 41.49184 | 123.30842 | 3459 ft | 210 kts | 324° |
| 2026-04-15 00:46 | 41.50473 | 123.30003 | 3088 ft | 212 kts | 354° |
| 2026-04-15 00:46 | 41.51894 | 123.30312 | 2871 ft | 203 kts | 32° |
| 2026-04-15 00:47 | 41.52949 | 123.31488 | 2911 ft | 198 kts | 47° |
| 2026-04-15 00:47 | 41.53854 | 123.32868 | 2903 ft | 198 kts | 50° |
| 2026-04-15 00:47 | 41.54732 | 123.34270 | 2703 ft | 197 kts | 50° |
| 2026-04-15 00:47 | 41.55600 | 123.35626 | 2501 ft | 189 kts | 50° |
| 2026-04-15 00:48 | 41.56453 | 123.36927 | 2217 ft | 182 kts | 49° |
| 2026-04-15 00:48 | 41.57264 | 123.38150 | 1977 ft | 169 kts | 49° |
| 2026-04-15 00:48 | 41.58022 | 123.39294 | 1746 ft | 157 kts | 49° |
| 2026-04-15 00:48 | 41.58713 | 123.40338 | 1511 ft | 143 kts | 50° |
| 2026-04-15 00:49 | 41.59341 | 123.41288 | 1309 ft | 133 kts | 49° |
| 2026-04-15 00:49 | 41.59954 | 123.42215 | 1152 ft | 133 kts | 50° |
| 2026-04-15 00:49 | 41.60553 | 123.43160 | 996 ft | 134 kts | 52° |
| 2026-04-15 00:49 | 41.61182 | 123.44096 | 823 ft | 134 kts | 47° |
| 2026-04-15 00:50 | 41.61802 | 123.45002 | 648 ft | 134 kts | 50° |
| 2026-04-15 00:50 | 41.62418 | 123.45939 | 435 ft | 134 kts | 50° |
| 2026-04-15 00:50 | 41.63039 | 123.46886 | 259 ft | 134 kts | 49° |
| 2026-04-15 00:50 | 41.63623 | 123.47787 | 208 ft | 117 kts | 44° |
| 2026-04-15 00:51 | 41.64059 | 123.48428 | 208 ft | 68 kts | 47° |
| 2026-04-15 00:51 | 41.64196 | 123.48646 | 208 ft | 22 kts | 60° |
| 2026-04-15 00:51 | 41.64255 | 123.48834 | 207 ft | 21 kts | 76° |
| 2026-04-15 00:51 | 41.64276 | 123.48988 | 208 ft | 14 kts | 85° |
| 2026-04-15 00:52 | 41.64240 | 123.49110 | 208 ft | 14 kts | 133° |
| 2026-04-15 00:52 | 41.64159 | 123.49200 | 208 ft | 15 kts | 141° |
| 2026-04-15 00:52 | 41.64066 | 123.49258 | 208 ft | 15 kts | 189° |
| 2026-04-15 00:52 | 41.63987 | 123.49167 | 208 ft | 15 kts | 230° |
| 2026-04-15 00:53 | 41.63915 | 123.49058 | 208 ft | 16 kts | 226° |
| 2026-04-15 00:53 | 41.63840 | 123.49054 | 208 ft | 4 kts | 137° |
| 2026-04-15 00:53 | 41.63825 | 123.49072 | 207 ft | 1 kts | 138° |